Time;durP1;ratioP1;P1;durP2;ratioP2;P2;SDS_P1;SDS_P2;PMS_P1;PMS_P2;Temp;Humidity;BMP_temperature;BMP_pressure;BME280_temperature;BME280_humidity;BME280_pressure;Samples;Min_cycle;Max_cycle;Signal;HPM_P1;HPM_P2
2023/07/09 00:01:17;;;;;;;2.03;1.63;;;22.40;99.90;;;;;;5035458;28;20394;-74
2023/07/09 00:03:44;;;;;;;2.40;1.60;;;22.30;99.90;;;;;;5014951;28;20044;-74
2023/07/09 00:06:11;;;;;;;2.80;1.90;;;22.30;99.90;;;;;;5015819;28;20473;-74
2023/07/09 00:08:43;;;;;;;1.70;1.40;;;22.30;99.90;;;;;;5030294;28;20757;-74
2023/07/09 00:11:09;;;;;;;3.33;1.70;;;22.30;99.90;;;;;;5033241;28;20060;-74
2023/07/09 00:13:35;;;;;;;3.05;2.10;;;22.20;99.90;;;;;;5031771;28;20389;-75
2023/07/09 00:16:07;;;;;;;1.90;1.70;;;22.20;99.90;;;;;;5034867;28;20048;-74
2023/07/09 00:18:34;;;;;;;2.72;2.28;;;22.20;99.90;;;;;;5014709;28;20498;-74
2023/07/09 00:21:01;;;;;;;2.00;1.80;;;22.20;99.90;;;;;;5033730;28;20041;-74
2023/07/09 00:23:27;;;;;;;3.15;2.30;;;22.10;99.90;;;;;;5030653;28;20045;-74
2023/07/09 00:25:53;;;;;;;2.75;2.42;;;22.10;99.90;;;;;;5017575;28;20160;-74
2023/07/09 00:28:20;;;;;;;2.83;2.53;;;22.10;99.90;;;;;;5030638;28;20053;-74
2023/07/09 00:30:47;;;;;;;2.90;2.47;;;22.10;99.90;;;;;;5034794;28;20064;-74
2023/07/09 00:33:20;;;;;;;2.92;2.35;;;22.10;99.90;;;;;;5030665;28;20409;-74
2023/07/09 00:35:48;;;;;;;2.70;2.30;;;22.10;99.90;;;;;;5016271;28;20432;-74
2023/07/09 00:38:16;;;;;;;2.78;2.30;;;22.10;99.90;;;;;;5030049;28;20066;-74
2023/07/09 00:41:07;;;;;;;2.50;2.20;;;22.10;99.90;;;;;;5017713;28;20048;-74
2023/07/09 00:43:35;;;;;;;3.70;2.78;;;22.10;99.90;;;;;;5029629;28;20049;-74
2023/07/09 00:46:18;;;;;;;2.30;1.90;;;22.00;99.90;;;;;;5033867;28;20384;-74
2023/07/09 00:48:50;;;;;;;3.20;2.40;;;22.00;99.90;;;;;;5013657;28;20049;-74
2023/07/09 00:51:20;;;;;;;2.67;2.25;;;21.90;99.90;;;;;;5034858;28;20037;-74
2023/07/09 00:53:49;;;;;;;2.60;2.30;;;22.00;99.90;;;;;;5030029;28;20045;-74
2023/07/09 00:56:22;;;;;;;3.05;2.45;;;21.90;99.90;;;;;;5034508;28;20041;-74
2023/07/09 00:58:49;;;;;;;2.15;1.95;;;21.90;1.00;;;;;;4996470;28;20524;-74
2023/07/09 01:01:18;;;;;;;2.55;2.35;;;21.90;1.00;;;;;;5023232;28;20034;-74
2023/07/09 01:03:47;;;;;;;3.03;2.15;;;21.90;1.00;;;;;;5013654;28;20090;-74
2023/07/09 01:06:15;;;;;;;2.60;2.00;;;21.90;1.00;;;;;;5036657;28;20076;-74
2023/07/09 01:08:41;;;;;;;2.45;2.17;;;21.80;99.90;;;;;;5045499;28;20121;-74
2023/07/09 01:11:20;;;;;;;2.67;2.00;;;21.80;1.00;;;;;;5035930;28;20368;-74
2023/07/09 01:13:50;;;;;;;2.65;1.88;;;21.80;1.00;;;;;;5016515;28;20060;-74
2023/07/09 01:16:17;;;;;;;2.08;1.70;;;21.80;1.00;;;;;;5030687;28;20128;-74
2023/07/09 01:18:43;;;;;;;2.35;1.85;;;21.80;1.00;;;;;;5031623;28;20049;-73
2023/07/09 01:21:16;;;;;;;3.03;2.00;;;21.70;1.00;;;;;;5027788;28;20072;-74
2023/07/09 01:23:48;;;;;;;2.28;1.80;;;21.70;1.00;;;;;;5023780;28;20072;-74
2023/07/09 01:26:17;;;;;;;2.28;1.40;;;21.70;1.00;;;;;;5026451;28;20082;-74
2023/07/09 01:28:43;;;;;;;2.03;1.58;;;21.70;1.00;;;;;;5029163;28;20638;-74
2023/07/09 01:31:11;;;;;;;1.80;1.50;;;21.60;1.00;;;;;;5031297;28;20120;-74
2023/07/09 01:33:39;;;;;;;2.50;1.80;;;21.60;1.00;;;;;;5037082;28;20045;-74
2023/07/09 01:36:09;;;;;;;2.75;1.70;;;21.60;1.00;;;;;;5020961;28;20077;-74
2023/07/09 01:38:35;;;;;;;1.95;1.67;;;21.60;1.00;;;;;;5017499;28;20132;-74
2023/07/09 01:41:02;;;;;;;1.58;1.40;;;21.60;1.00;;;;;;5027222;28;20148;-74
2023/07/09 01:43:27;;;;;;;1.70;1.50;;;21.50;1.00;;;;;;5037098;28;20095;-74
2023/07/09 01:45:57;;;;;;;1.80;1.50;;;21.50;1.00;;;;;;5017835;28;20041;-74
2023/07/09 01:48:24;;;;;;;3.00;1.90;;;21.50;50.50;;;;;;5023315;28;20060;-74
2023/07/09 01:50:51;;;;;;;2.38;1.95;;;21.50;24.40;;;;;;5027486;28;20050;-73
2023/07/09 01:53:23;;;;;;;2.85;2.20;;;21.40;1.00;;;;;;5020120;28;20116;-74
2023/07/09 01:55:50;;;;;;;2.45;2.00;;;21.40;1.00;;;;;;5025757;28;20052;-74
2023/07/09 01:58:16;;;;;;;3.08;2.30;;;21.40;18.70;;;;;;5033784;28;20046;-74
2023/07/09 02:00:43;;;;;;;2.30;2.05;;;21.40;14.90;;;;;;5024915;28;20069;-74
2023/07/09 02:03:08;;;;;;;2.60;2.00;;;21.40;1.00;;;;;;5033398;28;20053;-74
2023/07/09 02:05:36;;;;;;;2.58;1.92;;;21.40;4.50;;;;;;5028472;28;20037;-74
2023/07/09 02:08:02;;;;;;;3.22;2.25;;;21.30;23.50;;;;;;5012125;28;20049;-74
2023/07/09 02:10:28;;;;;;;2.90;2.20;;;21.40;28.70;;;;;;5020880;28;20041;-74
2023/07/09 02:12:54;;;;;;;2.22;2.00;;;21.30;49.30;;;;;;5013323;28;20535;-74
2023/07/09 02:15:20;;;;;;;2.25;2.00;;;21.30;1.00;;;;;;5011476;28;20088;-74
2023/07/09 02:17:46;;;;;;;2.63;1.98;;;21.20;1.00;;;;;;5031825;28;20488;-74
2023/07/09 02:20:12;;;;;;;3.45;2.22;;;21.20;65.20;;;;;;5028196;28;20111;-74
2023/07/09 02:22:39;;;;;;;2.65;2.08;;;21.20;58.00;;;;;;5027633;28;20124;-74
2023/07/09 02:25:06;;;;;;;2.65;1.70;;;21.10;82.10;;;;;;5028289;28;20045;-74
2023/07/09 02:27:33;;;;;;;2.25;1.70;;;21.10;99.90;;;;;;5014088;28;20420;-74
2023/07/09 02:29:59;;;;;;;2.42;1.95;;;21.10;99.90;;;;;;5028009;28;20057;-74
2023/07/09 02:32:26;;;;;;;2.60;1.98;;;21.10;99.90;;;;;;5028000;28;20057;-74
2023/07/09 02:34:53;;;;;;;2.67;2.05;;;21.10;99.90;;;;;;5027597;28;20053;-74
2023/07/09 02:37:20;;;;;;;2.53;2.08;;;21.00;99.90;;;;;;5034933;28;20049;-74
2023/07/09 02:39:47;;;;;;;2.17;1.90;;;21.10;96.60;;;;;;5031434;28;20046;-74
2023/07/09 02:42:14;;;;;;;3.65;2.33;;;21.00;99.90;;;;;;5034198;28;20045;-74
2023/07/09 02:44:44;;;;;;;2.88;2.35;;;21.00;41.70;;;;;;5023280;28;20046;-74
2023/07/09 02:47:10;;;;;;;2.10;1.75;;;21.00;99.90;;;;;;5041828;28;20033;-74
2023/07/09 02:49:37;;;;;;;2.30;1.80;;;20.90;99.90;;;;;;5038029;28;20053;-74
2023/07/09 02:52:03;;;;;;;1.90;1.58;;;20.90;99.90;;;;;;5034745;28;20036;-74
2023/07/09 02:54:29;;;;;;;2.30;1.60;;;20.90;99.90;;;;;;5041099;28;20041;-74
2023/07/09 02:56:55;;;;;;;2.65;2.13;;;20.80;99.90;;;;;;5037038;28;20087;-74
2023/07/09 02:59:20;;;;;;;;;;;20.80;99.90;;;;;;5043371;28;20077;-74
2023/07/09 03:01:47;;;;;;;2.20;2.00;;;20.80;99.90;;;;;;5042912;28;19925;-74
2023/07/09 03:04:13;;;;;;;3.53;2.60;;;20.80;99.90;;;;;;5015497;28;20124;-74
2023/07/09 03:06:40;;;;;;;3.50;2.58;;;20.80;99.90;;;;;;5040100;28;20136;-74
2023/07/09 03:09:06;;;;;;;2.53;2.10;;;20.70;99.90;;;;;;5045193;28;20049;-74
2023/07/09 03:11:34;;;;;;;2.22;1.92;;;20.70;99.90;;;;;;5015596;28;20108;-74
2023/07/09 03:14:00;;;;;;;2.35;1.98;;;20.70;99.90;;;;;;5027817;28;20091;-74
2023/07/09 03:16:28;;;;;;;2.20;1.83;;;20.70;99.90;;;;;;5035892;28;20402;-74
2023/07/09 03:18:55;;;;;;;2.42;1.92;;;20.70;99.90;;;;;;5045338;28;20076;-74
2023/07/09 03:21:21;;;;;;;2.50;1.92;;;20.60;99.90;;;;;;5032743;28;20045;-74
2023/07/09 03:23:47;;;;;;;2.30;1.80;;;20.60;99.90;;;;;;5045633;28;20045;-74
2023/07/09 03:26:13;;;;;;;3.00;2.22;;;20.60;99.90;;;;;;5019170;28;20116;-74
2023/07/09 03:28:38;;;;;;;;;;;20.60;1.00;;;;;;5048437;28;20048;-74
2023/07/09 03:31:04;;;;;;;2.22;1.80;;;20.50;1.00;;;;;;5031430;28;20307;-74
2023/07/09 03:33:30;;;;;;;1.88;1.65;;;20.50;1.00;;;;;;5041046;28;20045;-74
2023/07/09 03:35:55;;;;;;;;;;;20.50;1.00;;;;;;5035702;28;20037;-74
2023/07/09 03:38:22;;;;;;;1.73;1.52;;;20.50;1.00;;;;;;5023269;28;19998;-74
2023/07/09 03:40:53;;;;;;;2.00;1.80;;;20.50;1.00;;;;;;5013996;28;20378;-74
2023/07/09 03:43:19;;;;;;;2.00;1.77;;;20.50;1.00;;;;;;5030373;28;20076;-74
2023/07/09 03:45:46;;;;;;;1.70;1.48;;;20.50;1.00;;;;;;5031196;28;20048;-74
2023/07/09 03:48:12;;;;;;;1.80;1.50;;;20.50;1.00;;;;;;5021232;28;20056;-74
2023/07/09 03:50:37;;;;;;;2.10;1.67;;;20.50;1.00;;;;;;5033616;28;20094;-74
2023/07/09 03:53:03;;;;;;;2.10;1.75;;;20.50;1.00;;;;;;5040903;28;20383;-74
2023/07/09 03:55:29;;;;;;;2.05;1.73;;;20.50;1.00;;;;;;5030643;28;20055;-74
2023/07/09 03:57:55;;;;;;;;;;;20.50;1.00;;;;;;5037123;28;20164;-74
2023/07/09 04:00:21;;;;;;;2.22;1.83;;;20.50;1.00;;;;;;5032734;28;19921;-74
2023/07/09 04:02:47;;;;;;;2.35;1.90;;;20.50;1.00;;;;;;5040691;28;20060;-75
2023/07/09 04:05:13;;;;;;;2.22;1.70;;;20.50;1.00;;;;;;5036276;28;20072;-74
2023/07/09 04:07:38;;;;;;;1.90;1.60;;;20.50;1.00;;;;;;5032573;28;20038;-74
2023/07/09 04:10:06;;;;;;;2.28;1.80;;;20.50;1.00;;;;;;5031084;28;20087;-75
2023/07/09 04:12:32;;;;;;;2.30;1.83;;;20.60;1.00;;;;;;5029995;28;20056;-74
2023/07/09 04:14:57;;;;;;;1.83;1.52;;;20.60;1.00;;;;;;5030419;28;20045;-74
2023/07/09 04:17:23;;;;;;;2.00;1.52;;;20.60;1.00;;;;;;5033121;28;20373;-75
2023/07/09 04:19:52;;;;;;;;;;;20.60;1.00;;;;;;5036500;28;20285;-75
2023/07/09 04:22:18;;;;;;;2.00;1.70;;;20.60;1.00;;;;;;5030158;28;19917;-74
2023/07/09 04:24:45;;;;;;;2.42;1.90;;;20.60;1.00;;;;;;5019784;28;20043;-74
2023/07/09 04:27:13;;;;;;;2.13;1.77;;;20.70;99.90;;;;;;5036833;28;20043;-74
2023/07/09 04:29:40;;;;;;;2.08;1.52;;;20.70;99.90;;;;;;5035142;28;20077;-74
2023/07/09 04:32:07;;;;;;;2.50;2.00;;;20.70;99.90;;;;;;5030212;28;20053;-74
2023/07/09 04:34:33;;;;;;;2.28;1.90;;;20.80;99.90;;;;;;5019786;28;20041;-74
2023/07/09 04:36:58;;;;;;;2.75;2.05;;;20.80;99.90;;;;;;5035515;28;20056;-74
2023/07/09 04:39:24;;;;;;;;;;;20.90;99.90;;;;;;5033152;28;20420;-74
2023/07/09 04:41:50;;;;;;;2.60;2.17;;;20.90;99.90;;;;;;5027200;28;19921;-75
2023/07/09 04:44:16;;;;;;;;;;;20.90;99.90;;;;;;5014077;28;20068;-74
2023/07/09 04:46:41;;;;;;;2.97;2.42;;;20.90;99.90;;;;;;5028552;28;19921;-73
2023/07/09 04:49:07;;;;;;;2.65;2.40;;;21.00;99.90;;;;;;5022377;28;20393;-74
2023/07/09 04:51:33;;;;;;;;;;;21.00;99.90;;;;;;5027882;28;20045;-74
2023/07/09 04:54:02;;;;;;;2.47;2.05;;;21.10;99.90;;;;;;5028624;28;19927;-73
2023/07/09 04:56:29;;;;;;;2.55;1.85;;;21.10;99.90;;;;;;5026791;28;20067;-74
2023/07/09 04:58:55;;;;;;;2.50;2.10;;;21.10;99.90;;;;;;5032886;28;20053;-74
2023/07/09 05:01:21;;;;;;;2.33;1.85;;;21.20;99.90;;;;;;5019682;28;20473;-74
2023/07/09 05:03:47;;;;;;;2.60;1.98;;;21.20;99.90;;;;;;5033619;28;20064;-74
2023/07/09 05:06:14;;;;;;;1.90;1.50;;;21.20;99.90;;;;;;5039823;28;20049;-73
2023/07/09 05:08:41;;;;;;;2.72;1.92;;;21.30;99.90;;;;;;5028313;28;20085;-74
2023/07/09 05:11:07;;;;;;;2.20;1.90;;;21.30;99.90;;;;;;5029906;28;20091;-74
2023/07/09 05:13:33;;;;;;;2.00;1.50;;;21.40;99.90;;;;;;5012276;28;20049;-74
2023/07/09 05:15:59;;;;;;;2.25;1.50;;;21.40;99.90;;;;;;5029309;28;20041;-74
2023/07/09 05:18:24;;;;;;;2.28;1.50;;;21.50;99.90;;;;;;5031074;28;20045;-74
2023/07/09 05:20:50;;;;;;;1.80;1.50;;;21.50;99.90;;;;;;5031475;28;20048;-74
2023/07/09 05:23:16;;;;;;;;;;;21.60;99.90;;;;;;5013531;28;20053;-74
2023/07/09 05:25:41;;;;;;;2.42;1.77;;;21.60;99.90;;;;;;5012659;28;19948;-74
2023/07/09 05:28:07;;;;;;;1.75;1.42;;;21.70;99.90;;;;;;5010462;28;20033;-74
2023/07/09 05:30:33;;;;;;;1.73;1.40;;;21.80;99.90;;;;;;5042373;28;20056;-74
2023/07/09 05:32:59;;;;;;;2.03;1.60;;;21.80;99.90;;;;;;5023217;28;20476;-74
2023/07/09 05:35:26;;;;;;;1.42;1.27;;;21.90;99.90;;;;;;5040528;28;20045;-74
2023/07/09 05:37:55;;;;;;;2.00;1.67;;;21.90;99.90;;;;;;5033134;28;20092;-73
2023/07/09 05:40:21;;;;;;;1.60;1.40;;;22.00;99.90;;;;;;5010986;28;20374;-73
2023/07/09 05:42:48;;;;;;;1.60;1.40;;;22.10;99.90;;;;;;5012799;28;20073;-73
2023/07/09 05:45:15;;;;;;;1.73;1.40;;;22.10;99.90;;;;;;5022360;28;20117;-74
2023/07/09 05:47:41;;;;;;;1.95;1.60;;;22.20;99.90;;;;;;5031614;28;20128;-74
2023/07/09 05:50:07;;;;;;;2.17;1.45;;;22.30;99.90;;;;;;5015940;28;20175;-74
2023/07/09 05:52:33;;;;;;;2.08;1.65;;;22.40;99.90;;;;;;5028733;28;20037;-74
2023/07/09 05:54:59;;;;;;;1.25;1.15;;;22.40;99.90;;;;;;5033330;28;20098;-74
2023/07/09 05:57:25;;;;;;;1.42;1.30;;;22.50;99.90;;;;;;5028779;28;20507;-74
2023/07/09 05:59:51;;;;;;;1.83;1.50;;;22.60;99.90;;;;;;5030891;28;20045;-74
2023/07/09 06:02:19;;;;;;;1.90;1.48;;;22.70;99.90;;;;;;5013253;28;20363;-74
2023/07/09 06:04:46;;;;;;;1.65;1.30;;;22.70;99.90;;;;;;4997039;28;20045;-74
2023/07/09 06:07:13;;;;;;;1.42;1.30;;;22.70;99.90;;;;;;5014309;28;20056;-74
2023/07/09 06:09:39;;;;;;;1.70;1.48;;;22.70;99.90;;;;;;5029575;28;20195;-73
2023/07/09 06:12:06;;;;;;;1.92;1.40;;;22.70;99.90;;;;;;5031521;28;20550;-74
2023/07/09 06:14:32;;;;;;;1.30;1.20;;;22.70;99.90;;;;;;5009859;28;20083;-74
2023/07/09 06:16:59;;;;;;;1.58;1.20;;;22.70;99.90;;;;;;5029500;28;20416;-74
2023/07/09 06:19:25;;;;;;;1.38;1.13;;;22.70;99.90;;;;;;5011659;28;20041;-74
2023/07/09 06:21:51;;;;;;;1.25;1.00;;;22.80;99.90;;;;;;5007212;28;20048;-74
2023/07/09 06:24:16;;;;;;;1.23;1.05;;;22.80;99.90;;;;;;5027934;28;20072;-74
2023/07/09 06:26:42;;;;;;;1.40;1.10;;;22.90;1.00;;;;;;5017120;28;20136;-74
2023/07/09 06:29:08;;;;;;;1.63;1.38;;;23.00;99.90;;;;;;5016201;28;20056;-74
2023/07/09 06:31:34;;;;;;;1.60;1.30;;;23.10;1.00;;;;;;5036470;28;20499;-74
2023/07/09 06:33:59;;;;;;;1.60;1.40;;;23.30;99.90;;;;;;5032682;28;20037;-83
2023/07/09 06:36:25;;;;;;;2.15;1.70;;;23.50;99.90;;;;;;5020899;28;20049;-75
2023/07/09 06:38:51;;;;;;;2.03;1.75;;;23.70;99.90;;;;;;5032420;28;20057;-75
2023/07/09 06:41:17;;;;;;;3.10;1.80;;;23.80;99.90;;;;;;5028978;28;20041;-75
2023/07/09 06:43:43;;;;;;;2.67;1.83;;;23.90;99.90;;;;;;5031203;28;20103;-75
2023/07/09 06:46:11;;;;;;;2.13;1.73;;;24.00;99.90;;;;;;5038909;28;20036;-75
2023/07/09 06:48:37;;;;;;;2.60;2.03;;;24.10;99.90;;;;;;5035069;28;20048;-75
2023/07/09 06:51:03;;;;;;;1.92;1.73;;;24.20;99.90;;;;;;5033981;28;20412;-75
2023/07/09 06:53:30;;;;;;;3.05;2.20;;;24.30;99.90;;;;;;5031436;28;20094;-75
2023/07/09 06:55:58;;;;;;;3.08;2.22;;;24.40;90.30;;;;;;5020730;28;20773;-75
2023/07/09 06:58:27;;;;;;;2.65;1.98;;;24.40;98.00;;;;;;5022237;28;20052;-75
2023/07/09 07:00:54;;;;;;;3.22;1.95;;;24.40;99.90;;;;;;5038575;28;20049;-75
2023/07/09 07:03:23;;;;;;;1.70;1.50;;;24.50;99.90;;;;;;5031242;28;20044;-75
2023/07/09 07:05:50;;;;;;;1.80;1.50;;;24.60;99.90;;;;;;5018340;28;20044;-75
2023/07/09 07:08:17;;;;;;;1.65;1.40;;;24.70;99.90;;;;;;5039112;28;20064;-75
2023/07/09 07:10:50;;;;;;;1.73;1.42;;;24.80;99.90;;;;;;5016666;28;20127;-75
2023/07/09 07:13:16;;;;;;;1.98;1.50;;;24.90;99.90;;;;;;5030089;28;20076;-74
2023/07/09 07:15:48;;;;;;;1.73;1.27;;;25.10;99.90;;;;;;5017628;28;20042;-74
2023/07/09 07:18:13;;;;;;;2.00;1.52;;;25.30;99.90;;;;;;5027574;28;20049;-74
2023/07/09 07:20:39;;;;;;;1.90;1.70;;;25.50;34.50;;;;;;5030649;28;20037;-73
2023/07/09 07:23:05;;;;;;;1.70;1.40;;;25.70;39.10;;;;;;5032503;28;20045;-85
2023/07/09 07:25:32;;;;;;;2.58;1.88;;;25.80;1.00;;;;;;5014367;28;20127;-82
2023/07/09 07:27:58;;;;;;;1.88;1.65;;;25.90;1.00;;;;;;5031679;28;20124;-74
2023/07/09 07:30:24;;;;;;;2.10;1.58;;;26.10;1.00;;;;;;5029693;28;20124;-82
2023/07/09 07:32:50;;;;;;;2.30;1.90;;;26.20;13.70;;;;;;5032906;28;20148;-74
2023/07/09 07:35:18;;;;;;;3.10;2.28;;;26.30;1.00;;;;;;5035760;28;20516;-74
2023/07/09 07:37:44;;;;;;;2.45;2.20;;;26.20;1.00;;;;;;5020001;28;20097;-75
2023/07/09 07:40:11;;;;;;;2.75;2.15;;;26.10;1.00;;;;;;5032614;28;20077;-74
2023/07/09 07:42:37;;;;;;;2.20;2.00;;;26.10;71.90;;;;;;5032705;28;20048;-74
2023/07/09 07:45:03;;;;;;;2.72;2.25;;;26.10;99.90;;;;;;5017236;28;20132;-74
2023/07/09 07:47:29;;;;;;;2.20;1.90;;;26.00;98.80;;;;;;5028126;28;20030;-74
2023/07/09 07:49:56;;;;;;;2.40;1.90;;;26.00;99.90;;;;;;5041641;28;20087;-74
2023/07/09 07:52:21;;;;;;;2.97;2.05;;;26.00;99.90;;;;;;5032330;28;20049;-74
2023/07/09 07:54:47;;;;;;;2.20;2.00;;;26.00;99.90;;;;;;5013129;28;20143;-74
2023/07/09 07:57:13;;;;;;;2.63;2.13;;;26.20;99.90;;;;;;5034667;28;20049;-74
2023/07/09 07:59:39;;;;;;;3.83;2.30;;;26.30;99.90;;;;;;5039078;28;20408;-75
2023/07/09 08:02:10;;;;;;;2.97;1.98;;;26.40;99.90;;;;;;5034235;28;20033;-74
2023/07/09 08:04:36;;;;;;;2.75;2.30;;;26.60;99.90;;;;;;5030879;28;20056;-74
2023/07/09 08:07:02;;;;;;;2.70;2.20;;;26.80;1.00;;;;;;5019239;28;20049;-74
2023/07/09 08:09:28;;;;;;;2.70;2.15;;;27.00;35.70;;;;;;5031029;28;20507;-74
2023/07/09 08:11:53;;;;;;;2.72;2.30;;;27.10;1.00;;;;;;5034223;28;20049;-74
2023/07/09 08:14:19;;;;;;;3.10;2.22;;;27.30;1.00;;;;;;5030985;28;20049;-74
2023/07/09 08:16:46;;;;;;;4.93;3.30;;;27.50;1.00;;;;;;5034815;28;20385;-74
2023/07/09 08:19:11;;;;;;;3.17;2.58;;;27.50;1.00;;;;;;5032101;28;20562;-75
2023/07/09 08:21:37;;;;;;;3.30;2.75;;;27.50;1.00;;;;;;5030187;28;20128;-73
2023/07/09 08:24:03;;;;;;;3.30;2.60;;;27.60;1.00;;;;;;5016516;28;20073;-75
2023/07/09 08:26:31;;;;;;;3.70;2.90;;;27.60;99.90;;;;;;5034610;28;20088;-74
2023/07/09 08:28:57;;;;;;;3.00;2.60;;;27.70;99.90;;;;;;5042791;28;20047;-74
2023/07/09 08:31:22;;;;;;;3.92;2.75;;;27.60;99.90;;;;;;5030343;28;20464;-74
2023/07/09 08:33:48;;;;;;;2.97;2.40;;;27.70;99.90;;;;;;5034142;28;20052;-74
2023/07/09 08:36:14;;;;;;;3.15;2.50;;;27.70;99.90;;;;;;5030095;28;20068;-74
2023/07/09 08:38:40;;;;;;;2.47;2.15;;;27.90;99.90;;;;;;5031366;28;20076;-74
2023/07/09 08:41:06;;;;;;;2.25;2.05;;;28.00;1.00;;;;;;5029490;28;20049;-74
2023/07/09 08:43:44;;;;;;;4.15;2.45;;;28.20;1.00;;;;;;5034078;28;20076;-74
2023/07/09 08:46:33;;;;;;;3.15;2.67;;;28.40;99.90;;;;;;5013898;28;20052;-74
2023/07/09 08:49:02;;;;;;;5.53;3.92;;;28.50;99.90;;;;;;5004889;28;20053;-74
2023/07/09 08:51:40;;;;;;;5.75;4.43;;;28.50;99.90;;;;;;5029816;28;20037;-74
2023/07/09 08:54:15;;;;;;;4.30;3.30;;;28.60;99.90;;;;;;5038204;28;20043;-74
2023/07/09 08:56:41;;;;;;;4.63;3.97;;;28.90;99.90;;;;;;5029969;28;20045;-74
2023/07/09 08:59:11;;;;;;;5.63;4.32;;;28.70;99.90;;;;;;5007009;28;20224;-74
2023/07/09 09:01:44;;;;;;;6.32;4.80;;;28.60;99.90;;;;;;5023909;28;20053;-74
2023/07/09 09:04:24;;;;;;;6.43;4.85;;;28.70;99.90;;;;;;5034711;28;20046;-74
2023/07/09 09:07:11;;;;;;;4.80;3.90;;;28.60;99.90;;;;;;5029525;28;20488;-74
2023/07/09 09:10:03;;;;;;;4.55;3.92;;;28.70;99.90;;;;;;5037923;28;20493;-74
2023/07/09 09:12:58;;;;;;;6.15;5.13;;;28.90;99.90;;;;;;5027273;28;20110;-74
2023/07/09 09:15:25;;;;;;;4.82;4.30;;;28.80;99.90;;;;;;5034030;28;20049;-74
2023/07/09 09:17:55;;;;;;;7.07;5.03;;;28.90;99.90;;;;;;5031304;28;20049;-74
2023/07/09 09:20:22;;;;;;;7.15;5.68;;;28.70;99.90;;;;;;5029360;28;20046;-74
2023/07/09 09:23:23;;;;;;;5.28;4.10;;;28.60;99.90;;;;;;5001560;28;20040;-74
2023/07/09 09:25:53;;;;;;;5.00;4.25;;;28.70;99.90;;;;;;5011895;28;20566;-74
2023/07/09 09:28:19;;;;;;;6.70;5.15;;;28.90;99.90;;;;;;5032362;28;20112;-74
2023/07/09 09:30:44;;;;;;;7.10;4.82;;;28.90;99.90;;;;;;5029360;28;20144;-74
2023/07/09 09:33:14;;;;;;;7.45;6.15;;;28.90;99.90;;;;;;5012954;28;20548;-74
2023/07/09 09:35:43;;;;;;;6.32;5.30;;;28.90;99.90;;;;;;5033531;28;20060;-74
2023/07/09 09:38:27;;;;;;;7.75;6.00;;;28.80;99.90;;;;;;5018732;28;20103;-74
2023/07/09 09:41:00;;;;;;;7.07;5.70;;;28.80;99.90;;;;;;5017469;28;20048;-74
2023/07/09 09:43:32;;;;;;;7.15;5.10;;;28.70;99.90;;;;;;5032814;28;20479;-74
2023/07/09 09:46:02;;;;;;;4.60;4.13;;;28.60;99.90;;;;;;5038234;28;20503;-74
2023/07/09 09:48:30;;;;;;;5.25;4.40;;;28.70;99.90;;;;;;5029674;28;20049;-75
2023/07/09 09:51:01;;;;;;;7.38;5.60;;;28.80;99.90;;;;;;5012737;28;20056;-74
2023/07/09 09:53:29;;;;;;;7.05;6.15;;;28.80;99.90;;;;;;5029452;28;20084;-74
2023/07/09 09:55:56;;;;;;;7.85;5.18;;;28.90;99.90;;;;;;5028580;28;20056;-80
2023/07/09 09:58:28;;;;;;;6.75;4.80;;;29.00;99.90;;;;;;5028237;28;20118;-74
2023/07/09 10:00:56;;;;;;;5.30;4.80;;;29.00;99.90;;;;;;5026967;28;20053;-74
2023/07/09 10:03:33;;;;;;;7.00;5.13;;;29.10;99.90;;;;;;5024451;28;20041;-74
2023/07/09 10:06:05;;;;;;;5.97;5.22;;;29.00;99.90;;;;;;5024424;28;20123;-75
2023/07/09 10:09:03;;;;;;;6.13;4.97;;;29.00;99.90;;;;;;5024346;28;20377;-75
2023/07/09 10:11:42;;;;;;;5.18;4.32;;;29.10;99.90;;;;;;4988388;28;20050;-75
2023/07/09 10:14:30;;;;;;;7.57;4.40;;;29.20;99.90;;;;;;5028752;28;20484;-75
2023/07/09 10:17:05;;;;;;;4.15;3.65;;;29.50;99.90;;;;;;5021868;28;20515;-75
2023/07/09 10:19:41;;;;;;;4.57;4.03;;;29.70;99.90;;;;;;5031537;28;20050;-75
2023/07/09 10:22:16;;;;;;;5.03;4.50;;;29.90;99.90;;;;;;5026960;28;20063;-75
2023/07/09 10:25:26;;;;;;;5.83;4.97;;;30.00;99.90;;;;;;5034809;28;20049;-75
2023/07/09 10:28:29;;;;;;;5.38;4.57;;;29.90;99.90;;;;;;5004872;28;20364;-75
2023/07/09 10:31:11;;;;;;;6.45;5.47;;;29.80;99.90;;;;;;5023325;28;20034;-75
2023/07/09 10:33:58;;;;;;;6.60;4.90;;;29.50;99.90;;;;;;5031750;28;20049;-75
2023/07/09 10:36:32;;;;;;;8.32;6.10;;;29.40;99.90;;;;;;5006267;28;20396;-74
2023/07/09 10:39:14;;;;;;;5.85;5.25;;;29.30;99.90;;;;;;5025651;28;20451;-75
2023/07/09 10:41:41;;;;;;;4.57;3.92;;;29.30;99.90;;;;;;5023943;28;20040;-75
2023/07/09 10:44:22;;;;;;;4.30;3.88;;;29.50;99.90;;;;;;5014362;28;20040;-75
2023/07/09 10:46:53;;;;;;;4.63;3.95;;;29.70;99.90;;;;;;5030650;28;20042;-75
2023/07/09 10:49:20;;;;;;;4.80;4.05;;;29.90;99.90;;;;;;5032636;28;20041;-75
2023/07/09 10:51:59;;;;;;;5.13;4.35;;;29.80;99.90;;;;;;5024014;28;20044;-75
2023/07/09 10:54:35;;;;;;;5.80;4.25;;;29.80;99.90;;;;;;5036491;28;20459;-75
2023/07/09 10:57:16;;;;;;;5.10;4.35;;;30.00;99.90;;;;;;5007970;28;20433;-75
2023/07/09 10:59:42;;;;;;;4.72;3.92;;;30.20;99.90;;;;;;5010838;28;20034;-75
2023/07/09 11:02:29;;;;;;;5.03;3.58;;;30.40;99.90;;;;;;5004916;28;20108;-75
2023/07/09 11:04:54;;;;;;;;;;;30.70;99.90;;;;;;5035163;28;20394;-75
2023/07/09 11:07:54;;;;;;;4.28;3.65;;;30.80;99.90;;;;;;5007031;28;19921;-75
2023/07/09 11:10:34;;;;;;;4.03;3.38;;;30.90;99.90;;;;;;5011629;28;20048;-75
2023/07/09 11:13:05;;;;;;;5.00;3.40;;;31.00;99.90;;;;;;5021565;28;20073;-75
2023/07/09 11:15:36;;;;;;;5.05;3.50;;;31.10;99.90;;;;;;5028198;28;20046;-75
2023/07/09 11:18:05;;;;;;;4.35;3.85;;;31.20;99.90;;;;;;5026995;28;20037;-75
2023/07/09 11:20:40;;;;;;;4.97;4.20;;;31.40;99.90;;;;;;5030484;28;20401;-75
2023/07/09 11:23:21;;;;;;;5.20;3.70;;;31.30;99.90;;;;;;5011813;28;20632;-74
2023/07/09 11:25:49;;;;;;;3.25;2.90;;;31.30;99.90;;;;;;5034965;28;20073;-74
2023/07/09 11:28:15;;;;;;;3.72;3.35;;;31.60;99.90;;;;;;5031211;28;20101;-74
2023/07/09 11:30:54;;;;;;;4.65;4.00;;;31.70;99.90;;;;;;5039448;28;20108;-74
2023/07/09 11:33:27;;;;;;;4.63;3.60;;;31.60;95.50;;;;;;5030507;28;20848;-74
2023/07/09 11:36:07;;;;;;;3.90;3.40;;;31.50;99.90;;;;;;5015284;28;20040;-74
2023/07/09 11:38:49;;;;;;;4.68;3.50;;;31.60;99.90;;;;;;5031326;28;20512;-74
2023/07/09 11:41:40;;;;;;;4.05;3.13;;;31.60;99.90;;;;;;5037507;28;20037;-74
2023/07/09 11:44:08;;;;;;;3.60;3.15;;;31.70;99.90;;;;;;5030077;28;20041;-74
2023/07/09 11:46:39;;;;;;;4.30;3.55;;;31.60;89.00;;;;;;5032268;28;20037;-74
2023/07/09 11:49:08;;;;;;;4.10;3.70;;;31.40;97.20;;;;;;5031195;28;20128;-74
2023/07/09 11:51:58;;;;;;;5.60;4.43;;;31.40;91.40;;;;;;5025320;28;20127;-74
2023/07/09 11:54:24;;;;;;;5.70;3.90;;;31.10;75.50;;;;;;5028338;28;20170;-74
2023/07/09 11:56:58;;;;;;;4.57;4.00;;;31.10;98.40;;;;;;5014683;28;20173;-74
2023/07/09 11:59:24;;;;;;;5.03;3.95;;;31.30;99.20;;;;;;5008613;28;20409;-74
2023/07/09 12:01:54;;;;;;;4.05;3.47;;;31.50;99.90;;;;;;5029158;28;20041;-75
2023/07/09 12:04:23;;;;;;;5.20;4.28;;;31.80;94.40;;;;;;5031268;28;20405;-76
2023/07/09 12:06:57;;;;;;;4.40;3.80;;;31.60;91.30;;;;;;5031685;28;20508;-76
2023/07/09 12:09:23;;;;;;;5.03;3.80;;;31.80;90.60;;;;;;5032372;28;20049;-76
2023/07/09 12:11:50;;;;;;;3.60;3.20;;;31.80;93.60;;;;;;5032780;28;20307;-76
2023/07/09 12:14:19;;;;;;;4.07;3.67;;;32.00;86.00;;;;;;5023700;28;20134;-76
2023/07/09 12:16:53;;;;;;;4.38;3.58;;;31.90;86.80;;;;;;5014967;28;20049;-76
2023/07/09 12:19:22;;;;;;;3.97;3.38;;;32.00;55.90;;;;;;5021444;28;20389;-76
2023/07/09 12:21:58;;;;;;;4.00;3.60;;;32.00;72.90;;;;;;5011737;28;20068;-76
2023/07/09 12:24:31;;;;;;;5.15;3.88;;;32.00;31.30;;;;;;5011974;28;20480;-76
2023/07/09 12:27:02;;;;;;;4.97;3.67;;;31.80;27.70;;;;;;5029126;28;20048;-76
2023/07/09 12:29:34;;;;;;;4.10;3.50;;;31.70;41.40;;;;;;5025759;28;20049;-76
2023/07/09 12:32:10;;;;;;;4.88;3.50;;;31.80;58.20;;;;;;5017743;28;20764;-76
2023/07/09 12:34:35;;;;;;;5.00;3.85;;;31.80;22.70;;;;;;5029889;28;20045;-76
2023/07/09 12:37:01;;;;;;;4.57;3.53;;;31.50;1.00;;;;;;5033657;28;20061;-76
2023/07/09 12:39:29;;;;;;;4.38;3.95;;;31.30;3.70;;;;;;5027416;28;20065;-75
2023/07/09 12:41:59;;;;;;;5.30;3.80;;;31.20;7.10;;;;;;5029653;28;20040;-75
2023/07/09 12:44:25;;;;;;;5.05;4.15;;;31.20;3.10;;;;;;5023507;28;20124;-75
2023/07/09 12:46:53;;;;;;;6.50;4.70;;;31.10;1.00;;;;;;5013213;28;20049;-75
2023/07/09 12:49:51;;;;;;;4.80;3.88;;;31.10;1.00;;;;;;5148504;27;20110;-74
2023/07/09 12:52:24;;;;;;;4.97;3.65;;;31.20;12.00;;;;;;5109750;28;20051;-74
2023/07/09 12:55:01;;;;;;;4.75;3.85;;;31.20;2.50;;;;;;5112240;27;20047;-74
2023/07/09 12:57:28;;;;;;;4.00;3.35;;;31.20;1.00;;;;;;5106172;28;20035;-74
2023/07/09 12:59:55;;;;;;;4.45;3.47;;;31.40;1.00;;;;;;5109034;28;20381;-74
2023/07/09 13:02:25;;;;;;;5.15;3.60;;;31.30;1.00;;;;;;5118421;28;20075;-74
2023/07/09 13:05:04;;;;;;;4.70;3.67;;;31.20;1.00;;;;;;5109057;28;20071;-76